ES-0091 weather

Base de Bomberos del Amogable
Covaleda, Castilla y León, Spain

Public forecast

Using degrees Celsius for public forecast. Weather courtesy of forecast.io.

Closest aviation weather report (METAR) to Base de Bomberos del Amogable

Closest report is Burgos Airport, 42.2 nm (78.1 km) NW. Retrieved 2019/10/15 00:30 UTC (0 seconds ago):

LEBG 150030Z AUTO 22012KT 9999 FEW010 OVC027 06/04 Q1017

Closest aviation forecast (TAF) to Base de Bomberos del Amogable

Closest forecast is Vitoria/Foronda Airport, 62.1 nm (115.0 km) N. Retrieved 2019-10-15 00:27 UTC (25 seconds ago):

TAF LEVT 142300Z 1500/1524 23009KT 9999 BKN030 TX18/1514Z TN06/1506Z PROB30 TEMPO 1500/1503 3000 RA SHRA SCT030TCU